sensor_id;sensor_type;location;lat;lon;timestamp;P1;durP1;ratioP1;P2;durP2;ratioP2
22441;SDS011;11388;54.456;9.752;2023-05-20T00:00:30;1.38;;;0.77;;
22441;SDS011;11388;54.456;9.752;2023-05-20T00:02:58;2.17;;;0.80;;
22441;SDS011;11388;54.456;9.752;2023-05-20T00:05:30;2.83;;;1.00;;
22441;SDS011;11388;54.456;9.752;2023-05-20T00:08:07;2.25;;;0.90;;
22441;SDS011;11388;54.456;9.752;2023-05-20T00:10:55;2.60;;;0.80;;
22441;SDS011;11388;54.456;9.752;2023-05-20T00:19:49;4.57;;;0.80;;
22441;SDS011;11388;54.456;9.752;2023-05-20T00:22:19;2.67;;;0.75;;
22441;SDS011;11388;54.456;9.752;2023-05-20T00:24:48;2.58;;;0.80;;
22441;SDS011;11388;54.456;9.752;2023-05-20T00:27:17;5.32;;;1.25;;
22441;SDS011;11388;54.456;9.752;2023-05-20T00:29:43;3.25;;;0.95;;
22441;SDS011;11388;54.456;9.752;2023-05-20T00:32:17;2.10;;;0.88;;
22441;SDS011;11388;54.456;9.752;2023-05-20T00:34:58;1.95;;;0.82;;
22441;SDS011;11388;54.456;9.752;2023-05-20T00:37:37;6.10;;;1.10;;
22441;SDS011;11388;54.456;9.752;2023-05-20T00:40:02;2.65;;;0.80;;
22441;SDS011;11388;54.456;9.752;2023-05-20T00:42:29;3.42;;;0.90;;
22441;SDS011;11388;54.456;9.752;2023-05-20T00:44:55;4.35;;;0.95;;
22441;SDS011;11388;54.456;9.752;2023-05-20T00:47:28;2.67;;;0.90;;
22441;SDS011;11388;54.456;9.752;2023-05-20T00:49:56;3.90;;;1.02;;
22441;SDS011;11388;54.456;9.752;2023-05-20T00:52:24;1.77;;;0.80;;
22441;SDS011;11388;54.456;9.752;2023-05-20T00:54:51;3.83;;;0.90;;
22441;SDS011;11388;54.456;9.752;2023-05-20T00:57:18;4.15;;;1.10;;
22441;SDS011;11388;54.456;9.752;2023-05-20T00:59:44;2.63;;;0.93;;
22441;SDS011;11388;54.456;9.752;2023-05-20T01:02:10;4.93;;;1.13;;
22441;SDS011;11388;54.456;9.752;2023-05-20T01:04:36;3.08;;;1.20;;
22441;SDS011;11388;54.456;9.752;2023-05-20T01:07:03;2.70;;;0.88;;
22441;SDS011;11388;54.456;9.752;2023-05-20T01:09:30;3.47;;;1.17;;
22441;SDS011;11388;54.456;9.752;2023-05-20T01:14:55;3.28;;;0.90;;
22441;SDS011;11388;54.456;9.752;2023-05-20T01:17:29;3.70;;;1.00;;
22441;SDS011;11388;54.456;9.752;2023-05-20T01:20:01;2.17;;;1.05;;
22441;SDS011;11388;54.456;9.752;2023-05-20T01:22:35;2.00;;;1.00;;
22441;SDS011;11388;54.456;9.752;2023-05-20T01:25:02;2.42;;;1.10;;
22441;SDS011;11388;54.456;9.752;2023-05-20T01:27:29;3.17;;;1.10;;
22441;SDS011;11388;54.456;9.752;2023-05-20T01:29:55;2.97;;;0.98;;
22441;SDS011;11388;54.456;9.752;2023-05-20T01:32:23;2.70;;;0.98;;
22441;SDS011;11388;54.456;9.752;2023-05-20T01:34:56;3.80;;;1.08;;
22441;SDS011;11388;54.456;9.752;2023-05-20T01:37:22;2.53;;;0.90;;
22441;SDS011;11388;54.456;9.752;2023-05-20T01:39:49;2.53;;;1.00;;
22441;SDS011;11388;54.456;9.752;2023-05-20T01:42:16;3.13;;;1.08;;
22441;SDS011;11388;54.456;9.752;2023-05-20T01:44:45;4.05;;;1.10;;
22441;SDS011;11388;54.456;9.752;2023-05-20T01:47:16;2.55;;;0.93;;
22441;SDS011;11388;54.456;9.752;2023-05-20T01:49:42;2.97;;;1.00;;
22441;SDS011;11388;54.456;9.752;2023-05-20T01:52:10;3.92;;;1.20;;
22441;SDS011;11388;54.456;9.752;2023-05-20T01:54:36;3.28;;;0.90;;
22441;SDS011;11388;54.456;9.752;2023-05-20T01:57:02;2.95;;;1.00;;
22441;SDS011;11388;54.456;9.752;2023-05-20T01:59:27;4.53;;;1.00;;
22441;SDS011;11388;54.456;9.752;2023-05-20T02:01:53;3.30;;;1.10;;
22441;SDS011;11388;54.456;9.752;2023-05-20T02:04:19;3.10;;;1.00;;
22441;SDS011;11388;54.456;9.752;2023-05-20T02:06:46;2.78;;;1.13;;
22441;SDS011;11388;54.456;9.752;2023-05-20T02:09:18;3.83;;;1.10;;
22441;SDS011;11388;54.456;9.752;2023-05-20T02:11:47;2.83;;;1.00;;
22441;SDS011;11388;54.456;9.752;2023-05-20T02:14:15;3.58;;;1.27;;
22441;SDS011;11388;54.456;9.752;2023-05-20T02:16:44;2.83;;;0.90;;
22441;SDS011;11388;54.456;9.752;2023-05-20T02:19:13;3.58;;;1.25;;
22441;SDS011;11388;54.456;9.752;2023-05-20T02:21:43;2.88;;;1.10;;
22441;SDS011;11388;54.456;9.752;2023-05-20T02:24:12;3.85;;;0.98;;
22441;SDS011;11388;54.456;9.752;2023-05-20T02:26:40;3.10;;;0.90;;
22441;SDS011;11388;54.456;9.752;2023-05-20T02:29:12;3.55;;;1.10;;
22441;SDS011;11388;54.456;9.752;2023-05-20T02:31:41;1.98;;;0.93;;
22441;SDS011;11388;54.456;9.752;2023-05-20T02:34:16;2.38;;;1.00;;
22441;SDS011;11388;54.456;9.752;2023-05-20T02:36:45;2.83;;;1.00;;
22441;SDS011;11388;54.456;9.752;2023-05-20T02:39:11;3.13;;;1.02;;
22441;SDS011;11388;54.456;9.752;2023-05-20T02:41:42;2.60;;;1.02;;
22441;SDS011;11388;54.456;9.752;2023-05-20T02:44:34;3.38;;;0.90;;
22441;SDS011;11388;54.456;9.752;2023-05-20T02:47:09;3.22;;;0.95;;
22441;SDS011;11388;54.456;9.752;2023-05-20T02:49:34;3.55;;;1.00;;
22441;SDS011;11388;54.456;9.752;2023-05-20T02:52:06;4.95;;;1.23;;
22441;SDS011;11388;54.456;9.752;2023-05-20T02:54:40;2.97;;;0.95;;
22441;SDS011;11388;54.456;9.752;2023-05-20T02:57:05;4.13;;;0.95;;
22441;SDS011;11388;54.456;9.752;2023-05-20T02:59:33;3.95;;;1.10;;
22441;SDS011;11388;54.456;9.752;2023-05-20T03:02:10;2.30;;;0.88;;
22441;SDS011;11388;54.456;9.752;2023-05-20T03:04:49;2.45;;;0.98;;
22441;SDS011;11388;54.456;9.752;2023-05-20T03:07:18;2.58;;;0.98;;
22441;SDS011;11388;54.456;9.752;2023-05-20T03:09:48;3.25;;;0.98;;
22441;SDS011;11388;54.456;9.752;2023-05-20T03:12:23;7.22;;;1.00;;
22441;SDS011;11388;54.456;9.752;2023-05-20T03:14:57;2.55;;;1.00;;
22441;SDS011;11388;54.456;9.752;2023-05-20T03:17:32;2.92;;;1.10;;
22441;SDS011;11388;54.456;9.752;2023-05-20T03:19:58;1.83;;;0.95;;
22441;SDS011;11388;54.456;9.752;2023-05-20T03:22:28;2.60;;;0.85;;
22441;SDS011;11388;54.456;9.752;2023-05-20T03:25:05;2.85;;;0.80;;
22441;SDS011;11388;54.456;9.752;2023-05-20T03:27:51;2.22;;;0.88;;
22441;SDS011;11388;54.456;9.752;2023-05-20T03:33:53;4.57;;;0.98;;
22441;SDS011;11388;54.456;9.752;2023-05-20T03:36:39;2.97;;;0.95;;
22441;SDS011;11388;54.456;9.752;2023-05-20T03:39:09;1.45;;;0.90;;
22441;SDS011;11388;54.456;9.752;2023-05-20T03:41:47;2.20;;;0.80;;
22441;SDS011;11388;54.456;9.752;2023-05-20T03:45:17;2.83;;;1.00;;
22441;SDS011;11388;54.456;9.752;2023-05-20T03:47:54;3.83;;;0.98;;
22441;SDS011;11388;54.456;9.752;2023-05-20T03:50:33;1.95;;;0.80;;
22441;SDS011;11388;54.456;9.752;2023-05-20T03:53:22;2.80;;;0.98;;
22441;SDS011;11388;54.456;9.752;2023-05-20T03:56:03;3.13;;;0.80;;
22441;SDS011;11388;54.456;9.752;2023-05-20T03:58:41;3.30;;;0.93;;
22441;SDS011;11388;54.456;9.752;2023-05-20T04:01:10;2.67;;;0.80;;
22441;SDS011;11388;54.456;9.752;2023-05-20T04:03:41;2.58;;;0.80;;
22441;SDS011;11388;54.456;9.752;2023-05-20T04:06:20;1.88;;;0.68;;
22441;SDS011;11388;54.456;9.752;2023-05-20T04:08:56;1.73;;;0.70;;
22441;SDS011;11388;54.456;9.752;2023-05-20T04:11:53;2.35;;;0.70;;
22441;SDS011;11388;54.456;9.752;2023-05-20T04:14:24;1.33;;;0.80;;
22441;SDS011;11388;54.456;9.752;2023-05-20T04:16:50;1.50;;;0.73;;
22441;SDS011;11388;54.456;9.752;2023-05-20T04:19:23;2.72;;;0.80;;
22441;SDS011;11388;54.456;9.752;2023-05-20T04:21:52;1.70;;;0.75;;
22441;SDS011;11388;54.456;9.752;2023-05-20T04:24:18;3.25;;;0.90;;
22441;SDS011;11388;54.456;9.752;2023-05-20T04:26:48;1.35;;;0.70;;
22441;SDS011;11388;54.456;9.752;2023-05-20T04:29:15;1.38;;;0.70;;
22441;SDS011;11388;54.456;9.752;2023-05-20T04:31:41;2.95;;;0.80;;
22441;SDS011;11388;54.456;9.752;2023-05-20T04:34:06;3.80;;;0.60;;
22441;SDS011;11388;54.456;9.752;2023-05-20T04:36:34;4.00;;;0.80;;
22441;SDS011;11388;54.456;9.752;2023-05-20T04:39:04;2.90;;;0.73;;
22441;SDS011;11388;54.456;9.752;2023-05-20T04:41:32;3.33;;;0.90;;
22441;SDS011;11388;54.456;9.752;2023-05-20T04:43:58;2.50;;;0.80;;
22441;SDS011;11388;54.456;9.752;2023-05-20T04:46:26;1.50;;;0.82;;
22441;SDS011;11388;54.456;9.752;2023-05-20T04:48:52;2.47;;;0.60;;
22441;SDS011;11388;54.456;9.752;2023-05-20T04:53:59;2.35;;;0.90;;
22441;SDS011;11388;54.456;9.752;2023-05-20T04:56:25;2.38;;;0.90;;
22441;SDS011;11388;54.456;9.752;2023-05-20T04:58:53;2.03;;;0.82;;
22441;SDS011;11388;54.456;9.752;2023-05-20T05:04:08;1.83;;;0.88;;
22441;SDS011;11388;54.456;9.752;2023-05-20T05:06:35;1.50;;;0.77;;
22441;SDS011;11388;54.456;9.752;2023-05-20T05:09:04;2.70;;;0.70;;
22441;SDS011;11388;54.456;9.752;2023-05-20T05:11:41;3.42;;;0.82;;
22441;SDS011;11388;54.456;9.752;2023-05-20T05:14:23;2.95;;;0.95;;
22441;SDS011;11388;54.456;9.752;2023-05-20T05:16:52;4.47;;;0.90;;
22441;SDS011;11388;54.456;9.752;2023-05-20T05:19:18;2.80;;;0.80;;
22441;SDS011;11388;54.456;9.752;2023-05-20T05:21:43;2.45;;;0.70;;
22441;SDS011;11388;54.456;9.752;2023-05-20T05:24:09;3.72;;;0.95;;
22441;SDS011;11388;54.456;9.752;2023-05-20T05:26:35;2.20;;;0.90;;
22441;SDS011;11388;54.456;9.752;2023-05-20T05:29:01;2.13;;;0.80;;
22441;SDS011;11388;54.456;9.752;2023-05-20T05:31:26;1.95;;;0.80;;
22441;SDS011;11388;54.456;9.752;2023-05-20T05:33:52;2.50;;;0.80;;
22441;SDS011;11388;54.456;9.752;2023-05-20T05:36:17;3.13;;;0.82;;
22441;SDS011;11388;54.456;9.752;2023-05-20T05:38:43;1.88;;;0.70;;
22441;SDS011;11388;54.456;9.752;2023-05-20T05:41:09;2.28;;;0.80;;
22441;SDS011;11388;54.456;9.752;2023-05-20T05:43:35;1.80;;;0.73;;
22441;SDS011;11388;54.456;9.752;2023-05-20T05:46:00;3.90;;;0.70;;
22441;SDS011;11388;54.456;9.752;2023-05-20T05:48:26;2.53;;;0.70;;
22441;SDS011;11388;54.456;9.752;2023-05-20T05:53:40;1.88;;;0.60;;
22441;SDS011;11388;54.456;9.752;2023-05-20T05:56:06;2.78;;;1.45;;
22441;SDS011;11388;54.456;9.752;2023-05-20T05:58:32;2.83;;;1.48;;
22441;SDS011;11388;54.456;9.752;2023-05-20T06:00:58;2.50;;;0.90;;
22441;SDS011;11388;54.456;9.752;2023-05-20T06:03:23;6.20;;;1.05;;
22441;SDS011;11388;54.456;9.752;2023-05-20T06:05:49;5.43;;;2.00;;
22441;SDS011;11388;54.456;9.752;2023-05-20T06:08:15;3.17;;;1.30;;
22441;SDS011;11388;54.456;9.752;2023-05-20T06:10:40;3.10;;;0.90;;
22441;SDS011;11388;54.456;9.752;2023-05-20T06:13:11;1.23;;;0.60;;
22441;SDS011;11388;54.456;9.752;2023-05-20T06:15:36;1.70;;;0.80;;
22441;SDS011;11388;54.456;9.752;2023-05-20T06:25:50;11.32;;;1.08;;
22441;SDS011;11388;54.456;9.752;2023-05-20T06:28:16;2.17;;;0.70;;
22441;SDS011;11388;54.456;9.752;2023-05-20T06:30:42;2.20;;;0.60;;
22441;SDS011;11388;54.456;9.752;2023-05-20T06:33:08;1.80;;;0.60;;
22441;SDS011;11388;54.456;9.752;2023-05-20T06:35:35;6.82;;;0.70;;
22441;SDS011;11388;54.456;9.752;2023-05-20T06:40:32;2.88;;;0.77;;
22441;SDS011;11388;54.456;9.752;2023-05-20T06:42:57;2.42;;;1.15;;
22441;SDS011;11388;54.456;9.752;2023-05-20T06:45:23;4.30;;;1.70;;
22441;SDS011;11388;54.456;9.752;2023-05-20T06:47:49;2.72;;;0.85;;
22441;SDS011;11388;54.456;9.752;2023-05-20T06:50:14;2.85;;;0.70;;
22441;SDS011;11388;54.456;9.752;2023-05-20T06:52:40;4.80;;;0.85;;
22441;SDS011;11388;54.456;9.752;2023-05-20T06:55:06;4.57;;;0.95;;
22441;SDS011;11388;54.456;9.752;2023-05-20T06:57:32;7.50;;;0.90;;
22441;SDS011;11388;54.456;9.752;2023-05-20T06:59:58;4.00;;;0.80;;
22441;SDS011;11388;54.456;9.752;2023-05-20T07:02:24;2.53;;;0.80;;
22441;SDS011;11388;54.456;9.752;2023-05-20T07:04:49;4.50;;;0.90;;
22441;SDS011;11388;54.456;9.752;2023-05-20T07:07:15;2.10;;;0.90;;
22441;SDS011;11388;54.456;9.752;2023-05-20T07:16:30;3.00;;;1.40;;
22441;SDS011;11388;54.456;9.752;2023-05-20T07:18:58;3.60;;;1.52;;
22441;SDS011;11388;54.456;9.752;2023-05-20T07:27:03;2.85;;;0.85;;
22441;SDS011;11388;54.456;9.752;2023-05-20T07:29:29;6.97;;;1.10;;
22441;SDS011;11388;54.456;9.752;2023-05-20T07:31:55;5.63;;;1.02;;
22441;SDS011;11388;54.456;9.752;2023-05-20T07:34:21;4.47;;;1.30;;
22441;SDS011;11388;54.456;9.752;2023-05-20T07:36:46;3.53;;;1.10;;
22441;SDS011;11388;54.456;9.752;2023-05-20T07:39:13;4.40;;;1.55;;
22441;SDS011;11388;54.456;9.752;2023-05-20T07:41:39;4.55;;;1.25;;
22441;SDS011;11388;54.456;9.752;2023-05-20T07:44:06;4.65;;;1.50;;
22441;SDS011;11388;54.456;9.752;2023-05-20T07:46:35;2.95;;;1.00;;
22441;SDS011;11388;54.456;9.752;2023-05-20T07:52:14;4.15;;;1.25;;
22441;SDS011;11388;54.456;9.752;2023-05-20T07:54:40;9.68;;;1.60;;
22441;SDS011;11388;54.456;9.752;2023-05-20T07:57:06;3.78;;;1.20;;
22441;SDS011;11388;54.456;9.752;2023-05-20T07:59:32;4.32;;;1.40;;
22441;SDS011;11388;54.456;9.752;2023-05-20T08:01:57;28.33;;;3.13;;
22441;SDS011;11388;54.456;9.752;2023-05-20T08:04:23;3.03;;;1.10;;
22441;SDS011;11388;54.456;9.752;2023-05-20T08:09:41;3.60;;;1.55;;
22441;SDS011;11388;54.456;9.752;2023-05-20T08:12:07;4.50;;;1.55;;
22441;SDS011;11388;54.456;9.752;2023-05-20T08:14:32;8.40;;;1.80;;
22441;SDS011;11388;54.456;9.752;2023-05-20T08:16:58;4.47;;;1.48;;
22441;SDS011;11388;54.456;9.752;2023-05-20T08:19:24;3.75;;;1.60;;
22441;SDS011;11388;54.456;9.752;2023-05-20T08:21:50;4.32;;;1.58;;
22441;SDS011;11388;54.456;9.752;2023-05-20T08:24:16;7.57;;;1.58;;
22441;SDS011;11388;54.456;9.752;2023-05-20T08:26:42;4.65;;;1.50;;
22441;SDS011;11388;54.456;9.752;2023-05-20T08:29:07;3.80;;;1.40;;
22441;SDS011;11388;54.456;9.752;2023-05-20T08:31:33;4.03;;;1.52;;
22441;SDS011;11388;54.456;9.752;2023-05-20T08:33:59;6.07;;;1.70;;
22441;SDS011;11388;54.456;9.752;2023-05-20T08:36:24;9.52;;;1.75;;
22441;SDS011;11388;54.456;9.752;2023-05-20T08:38:50;5.55;;;1.35;;
22441;SDS011;11388;54.456;9.752;2023-05-20T08:52:20;4.82;;;1.90;;
22441;SDS011;11388;54.456;9.752;2023-05-20T08:54:49;4.65;;;1.63;;
22441;SDS011;11388;54.456;9.752;2023-05-20T08:57:17;5.03;;;1.45;;
22441;SDS011;11388;54.456;9.752;2023-05-20T08:59:44;5.03;;;1.30;;
22441;SDS011;11388;54.456;9.752;2023-05-20T09:02:12;4.18;;;1.33;;
22441;SDS011;11388;54.456;9.752;2023-05-20T09:10:44;3.53;;;1.33;;
22441;SDS011;11388;54.456;9.752;2023-05-20T09:16:16;3.75;;;1.35;;
22441;SDS011;11388;54.456;9.752;2023-05-20T09:18:42;3.55;;;1.40;;
22441;SDS011;11388;54.456;9.752;2023-05-20T09:21:27;6.68;;;1.55;;
22441;SDS011;11388;54.456;9.752;2023-05-20T09:24:14;4.57;;;1.30;;
22441;SDS011;11388;54.456;9.752;2023-05-20T09:26:50;11.32;;;1.67;;
22441;SDS011;11388;54.456;9.752;2023-05-20T09:29:16;6.93;;;1.50;;
22441;SDS011;11388;54.456;9.752;2023-05-20T09:31:45;10.48;;;1.63;;
22441;SDS011;11388;54.456;9.752;2023-05-20T09:34:11;3.35;;;1.40;;
22441;SDS011;11388;54.456;9.752;2023-05-20T09:36:38;5.05;;;1.50;;
22441;SDS011;11388;54.456;9.752;2023-05-20T09:39:04;3.40;;;1.80;;
22441;SDS011;11388;54.456;9.752;2023-05-20T09:41:51;5.32;;;2.70;;
22441;SDS011;11388;54.456;9.752;2023-05-20T09:44:59;10.65;;;2.00;;
22441;SDS011;11388;54.456;9.752;2023-05-20T09:47:46;19.80;;;2.28;;
22441;SDS011;11388;54.456;9.752;2023-05-20T09:50:12;7.13;;;1.60;;
22441;SDS011;11388;54.456;9.752;2023-05-20T09:52:40;5.82;;;1.70;;
22441;SDS011;11388;54.456;9.752;2023-05-20T09:55:07;5.00;;;1.50;;
22441;SDS011;11388;54.456;9.752;2023-05-20T09:57:36;35.35;;;2.75;;
22441;SDS011;11388;54.456;9.752;2023-05-20T10:00:03;12.45;;;1.73;;
22441;SDS011;11388;54.456;9.752;2023-05-20T10:02:30;10.88;;;1.40;;
22441;SDS011;11388;54.456;9.752;2023-05-20T10:04:58;6.18;;;1.83;;
22441;SDS011;11388;54.456;9.752;2023-05-20T10:13:26;5.40;;;1.77;;
22441;SDS011;11388;54.456;9.752;2023-05-20T10:19:34;6.60;;;1.33;;
22441;SDS011;11388;54.456;9.752;2023-05-20T10:22:04;3.53;;;1.15;;
22441;SDS011;11388;54.456;9.752;2023-05-20T10:24:34;8.60;;;1.40;;
22441;SDS011;11388;54.456;9.752;2023-05-20T10:27:02;4.70;;;1.02;;
22441;SDS011;11388;54.456;9.752;2023-05-20T10:29:31;10.15;;;1.65;;
22441;SDS011;11388;54.456;9.752;2023-05-20T10:32:09;10.45;;;1.13;;
22441;SDS011;11388;54.456;9.752;2023-05-20T10:34:48;3.28;;;0.90;;
22441;SDS011;11388;54.456;9.752;2023-05-20T10:37:25;4.63;;;1.00;;
22441;SDS011;11388;54.456;9.752;2023-05-20T10:52:24;3.40;;;0.90;;
22441;SDS011;11388;54.456;9.752;2023-05-20T11:08:34;3.47;;;0.90;;
22441;SDS011;11388;54.456;9.752;2023-05-20T11:11:32;4.55;;;1.00;;
22441;SDS011;11388;54.456;9.752;2023-05-20T11:14:05;3.47;;;0.90;;
22441;SDS011;11388;54.456;9.752;2023-05-20T11:16:44;1.95;;;0.90;;
22441;SDS011;11388;54.456;9.752;2023-05-20T11:22:14;3.53;;;0.80;;
22441;SDS011;11388;54.456;9.752;2023-05-20T11:24:48;4.05;;;1.10;;
22441;SDS011;11388;54.456;9.752;2023-05-20T11:27:17;3.90;;;1.10;;
22441;SDS011;11388;54.456;9.752;2023-05-20T11:29:49;4.22;;;0.80;;
22441;SDS011;11388;54.456;9.752;2023-05-20T11:32:30;2.75;;;1.00;;
22441;SDS011;11388;54.456;9.752;2023-05-20T11:35:45;3.22;;;0.98;;
22441;SDS011;11388;54.456;9.752;2023-05-20T11:41:54;3.80;;;1.10;;
22441;SDS011;11388;54.456;9.752;2023-05-20T11:57:57;3.28;;;1.10;;
22441;SDS011;11388;54.456;9.752;2023-05-20T12:01:35;9.68;;;1.58;;
22441;SDS011;11388;54.456;9.752;2023-05-20T12:13:42;3.72;;;1.10;;
22441;SDS011;11388;54.456;9.752;2023-05-20T12:16:23;3.75;;;1.10;;
22441;SDS011;11388;54.456;9.752;2023-05-20T12:22:10;4.07;;;1.48;;
22441;SDS011;11388;54.456;9.752;2023-05-20T12:24:38;4.53;;;1.10;;
22441;SDS011;11388;54.456;9.752;2023-05-20T12:27:10;4.38;;;1.10;;
22441;SDS011;11388;54.456;9.752;2023-05-20T12:29:36;5.32;;;1.30;;
22441;SDS011;11388;54.456;9.752;2023-05-20T12:32:02;5.75;;;0.90;;
22441;SDS011;11388;54.456;9.752;2023-05-20T12:34:31;4.68;;;1.10;;
22441;SDS011;11388;54.456;9.752;2023-05-20T12:37:04;3.00;;;0.90;;
22441;SDS011;11388;54.456;9.752;2023-05-20T12:39:37;3.47;;;0.77;;
22441;SDS011;11388;54.456;9.752;2023-05-20T12:42:11;1.95;;;0.77;;
22441;SDS011;11388;54.456;9.752;2023-05-20T12:44:52;4.10;;;0.98;;
22441;SDS011;11388;54.456;9.752;2023-05-20T12:47:54;4.72;;;0.98;;
22441;SDS011;11388;54.456;9.752;2023-05-20T12:50:45;2.28;;;0.90;;
22441;SDS011;11388;54.456;9.752;2023-05-20T12:53:11;3.05;;;1.30;;
22441;SDS011;11388;54.456;9.752;2023-05-20T12:55:41;2.95;;;0.93;;
22441;SDS011;11388;54.456;9.752;2023-05-20T12:58:12;3.55;;;0.90;;
22441;SDS011;11388;54.456;9.752;2023-05-20T13:00:54;3.05;;;1.00;;
22441;SDS011;11388;54.456;9.752;2023-05-20T13:57:54;2.35;;;0.90;;
22441;SDS011;11388;54.456;9.752;2023-05-20T14:28:27;2.92;;;0.80;;
22441;SDS011;11388;54.456;9.752;2023-05-20T14:30:58;4.47;;;0.82;;
22441;SDS011;11388;54.456;9.752;2023-05-20T14:34:08;2.67;;;0.80;;
22441;SDS011;11388;54.456;9.752;2023-05-20T14:37:12;3.78;;;1.05;;
22441;SDS011;11388;54.456;9.752;2023-05-20T14:39:53;3.85;;;0.90;;
22441;SDS011;11388;54.456;9.752;2023-05-20T14:52:52;3.83;;;0.80;;
22441;SDS011;11388;54.456;9.752;2023-05-20T14:55:20;3.55;;;0.90;;
22441;SDS011;11388;54.456;9.752;2023-05-20T14:57:46;3.33;;;0.70;;
22441;SDS011;11388;54.456;9.752;2023-05-20T15:00:41;4.95;;;0.80;;
22441;SDS011;11388;54.456;9.752;2023-05-20T15:03:21;3.85;;;0.80;;
22441;SDS011;11388;54.456;9.752;2023-05-20T15:05:56;1.65;;;0.70;;
22441;SDS011;11388;54.456;9.752;2023-05-20T15:08:36;3.75;;;0.82;;
22441;SDS011;11388;54.456;9.752;2023-05-20T15:11:08;2.17;;;0.80;;
22441;SDS011;11388;54.456;9.752;2023-05-20T15:13:36;2.38;;;0.70;;
22441;SDS011;11388;54.456;9.752;2023-05-20T15:16:22;2.15;;;0.90;;
22441;SDS011;11388;54.456;9.752;2023-05-20T15:18:54;1.88;;;0.80;;
22441;SDS011;11388;54.456;9.752;2023-05-20T15:21:20;2.03;;;0.90;;
22441;SDS011;11388;54.456;9.752;2023-05-20T15:23:48;3.38;;;0.80;;
22441;SDS011;11388;54.456;9.752;2023-05-20T15:26:22;3.33;;;0.90;;
22441;SDS011;11388;54.456;9.752;2023-05-20T15:28:53;3.38;;;0.85;;
22441;SDS011;11388;54.456;9.752;2023-05-20T15:31:36;2.17;;;0.70;;
22441;SDS011;11388;54.456;9.752;2023-05-20T15:36:57;3.53;;;1.00;;
22441;SDS011;11388;54.456;9.752;2023-05-20T15:39:23;3.60;;;0.82;;
22441;SDS011;11388;54.456;9.752;2023-05-20T15:41:52;3.03;;;0.85;;
22441;SDS011;11388;54.456;9.752;2023-05-20T15:44:18;3.53;;;0.70;;
22441;SDS011;11388;54.456;9.752;2023-05-20T15:46:44;3.75;;;0.98;;
22441;SDS011;11388;54.456;9.752;2023-05-20T15:49:10;3.38;;;0.90;;
22441;SDS011;11388;54.456;9.752;2023-05-20T15:51:37;2.78;;;0.93;;
22441;SDS011;11388;54.456;9.752;2023-05-20T15:54:03;5.40;;;1.00;;
22441;SDS011;11388;54.456;9.752;2023-05-20T15:56:32;4.72;;;0.82;;
22441;SDS011;11388;54.456;9.752;2023-05-20T15:58:58;3.83;;;1.00;;
22441;SDS011;11388;54.456;9.752;2023-05-20T16:04:56;3.03;;;0.75;;
22441;SDS011;11388;54.456;9.752;2023-05-20T16:07:25;3.83;;;0.90;;
22441;SDS011;11388;54.456;9.752;2023-05-20T16:09:57;2.55;;;0.98;;
22441;SDS011;11388;54.456;9.752;2023-05-20T16:18:43;2.30;;;0.80;;
22441;SDS011;11388;54.456;9.752;2023-05-20T16:21:19;3.38;;;1.10;;
22441;SDS011;11388;54.456;9.752;2023-05-20T16:23:48;2.58;;;0.90;;
22441;SDS011;11388;54.456;9.752;2023-05-20T16:26:14;3.33;;;0.90;;
22441;SDS011;11388;54.456;9.752;2023-05-20T16:28:43;3.38;;;0.85;;
22441;SDS011;11388;54.456;9.752;2023-05-20T16:31:11;2.47;;;0.80;;
22441;SDS011;11388;54.456;9.752;2023-05-20T16:33:40;3.17;;;0.93;;
22441;SDS011;11388;54.456;9.752;2023-05-20T16:36:08;3.38;;;0.90;;
22441;SDS011;11388;54.456;9.752;2023-05-20T16:38:39;2.65;;;0.90;;
22441;SDS011;11388;54.456;9.752;2023-05-20T16:41:08;2.08;;;0.70;;
22441;SDS011;11388;54.456;9.752;2023-05-20T16:43:37;2.13;;;0.80;;
22441;SDS011;11388;54.456;9.752;2023-05-20T16:46:05;2.13;;;0.80;;
22441;SDS011;11388;54.456;9.752;2023-05-20T16:48:36;3.25;;;0.95;;
22441;SDS011;11388;54.456;9.752;2023-05-20T16:54:13;3.08;;;0.77;;
22441;SDS011;11388;54.456;9.752;2023-05-20T16:56:45;2.65;;;0.90;;
22441;SDS011;11388;54.456;9.752;2023-05-20T17:02:19;4.60;;;1.05;;
22441;SDS011;11388;54.456;9.752;2023-05-20T17:04:54;3.83;;;1.15;;
22441;SDS011;11388;54.456;9.752;2023-05-20T17:07:45;3.53;;;1.00;;
22441;SDS011;11388;54.456;9.752;2023-05-20T17:10:24;3.67;;;1.00;;
22441;SDS011;11388;54.456;9.752;2023-05-20T17:16:18;2.35;;;0.85;;
22441;SDS011;11388;54.456;9.752;2023-05-20T17:22:14;3.47;;;1.10;;
22441;SDS011;11388;54.456;9.752;2023-05-20T17:28:37;3.08;;;1.13;;
22441;SDS011;11388;54.456;9.752;2023-05-20T17:31:11;4.60;;;1.00;;
22441;SDS011;11388;54.456;9.752;2023-05-20T17:37:13;3.72;;;1.30;;
22441;SDS011;11388;54.456;9.752;2023-05-20T19:22:35;4.53;;;1.02;;
22441;SDS011;11388;54.456;9.752;2023-05-20T19:28:33;3.33;;;0.90;;
22441;SDS011;11388;54.456;9.752;2023-05-20T20:19:57;2.55;;;0.85;;
22441;SDS011;11388;54.456;9.752;2023-05-20T20:26:01;6.55;;;1.20;;
22441;SDS011;11388;54.456;9.752;2023-05-20T20:52:33;5.30;;;1.17;;
22441;SDS011;11388;54.456;9.752;2023-05-20T20:56:56;4.60;;;1.17;;
22441;SDS011;11388;54.456;9.752;2023-05-20T21:03:25;3.45;;;0.90;;
22441;SDS011;11388;54.456;9.752;2023-05-20T23:10:02;3.55;;;1.30;;
